Startpagina
METAR-TAF:

METAR-TAF

Vliegvelden :

Vlissingen, Nederland

breedte: 51-27N, lengte: 3-36E, hoogte: 10 m

Actueel weer

Dit bericht is 26 minuten geleden gemaakt, om 03:25 UTC
Wind 6 kt uit het zuiden
Temperatuur 20°C
Vochtigheid 83%
Druk 1020 hPa
Zicht: 9000 m

METAR: EHFS 210325Z AUTO 18006KT 9000 BKN038/// 20/17 Q1020 W///H///

Tijdstip: 05:51 (03:51 UTC)


TAF: ontbreekt

Waarnemingen en weersverwachtingen van meer dan 4000 vliegvelden (METAR en TAF).

De beschikbare stations zijn de gele en rode punten op de kaart.

Ga met uw muis naar het station om de naam te zien.

Klik dan om waarnemingen en weersverwachtingen te zien.

kaart wijzigen: klik op de groene knoppen met een zwart kruis om in te zoomen, op de groene knop met een streepje om uit te zoomen of op de groene pijlen voor aangrenzende kaarten.


METAR-TAF: